Holt, United Kingdom
Current Conditions -  °F | °C
As of 8:50 PM on Saturday 25 Oct 2014 (Local Time) from EGSH Reporting Station
Broken Clouds Broken Clouds  
Wind Chill: 54°   Ceiling: 4200
Heat Index: 54°   Visibility: 6mi
Dew Point: 48°   Wind: 10mph
Humidity: 82%   Direction: 210°SSW
Pressure: 30.06"   Gusts: NA
Location:  52.91°N, 1.09°E
Report Text: EGSH 251950Z 21009KT 180V240 9999 BKN042 12/09 Q1018 NOSIG
Loading
Personal Weather Stations






























Interactive Weather Map
Tropical Storm Tracking
New forecast layout! Learn more

10-Day Weather Forecast

Advertisements
Track Severe Weather on mobile